createdAt,value
2022-10-12T00:01:48.119Z,20.48
2022-10-12T00:04:15.573Z,20.88
2022-10-12T00:06:42.903Z,21.10
2022-10-12T00:09:10.472Z,19.40
2022-10-12T00:11:40.668Z,23.13
2022-10-12T00:14:08.237Z,20.73
2022-10-12T00:16:36.241Z,22.27
2022-10-12T00:19:03.664Z,21.55
2022-10-12T00:21:31.984Z,20.02
2022-10-12T00:24:00.203Z,20.88
2022-10-12T00:26:29.078Z,27.00
2022-10-12T00:29:00.109Z,23.17
2022-10-12T00:31:28.238Z,18.30
2022-10-12T00:33:56.160Z,18.55
2022-10-12T00:36:25.340Z,28.67
2022-10-12T00:38:54.449Z,22.42
2022-10-12T00:41:24.121Z,16.30
2022-10-12T00:43:56.992Z,16.58
2022-10-12T00:46:31.777Z,21.33
2022-10-12T00:49:06.504Z,23.55
2022-10-12T00:51:34.387Z,27.58
2022-10-12T00:54:05.373Z,23.27
2022-10-12T00:56:34.681Z,18.27
2022-10-12T00:59:04.260Z,30.25
2022-10-12T01:01:34.398Z,16.67
2022-10-12T01:04:01.857Z,18.52
2022-10-12T01:06:29.440Z,19.45
2022-10-12T01:09:03.732Z,22.25
2022-10-12T01:11:31.072Z,17.65
2022-10-12T01:13:58.771Z,20.40
2022-10-12T01:16:31.253Z,22.90
2022-10-12T01:19:05.124Z,15.60
2022-10-12T01:24:24.175Z,17.85
2022-10-12T01:27:04.298Z,19.33
2022-10-12T01:29:45.951Z,26.80
2022-10-12T01:32:19.198Z,16.83
2022-10-12T01:34:49.460Z,19.83
2022-10-12T01:37:21.734Z,18.15
2022-10-12T01:39:53.583Z,19.60
2022-10-12T01:42:24.534Z,20.40
2022-10-12T01:44:52.459Z,15.88
2022-10-12T01:47:21.578Z,19.85
2022-10-12T01:49:49.181Z,20.90
2022-10-12T01:52:28.408Z,19.15
2022-10-12T01:55:04.975Z,17.88
2022-10-12T01:57:36.784Z,15.90
2022-10-12T02:00:07.467Z,17.63
2022-10-12T02:02:42.709Z,20.17
2022-10-12T02:05:13.883Z,19.58
2022-10-12T02:07:43.560Z,18.77
2022-10-12T02:10:15.856Z,17.52
2022-10-12T02:12:44.001Z,17.13
2022-10-12T02:15:12.621Z,19.33
2022-10-12T02:17:44.572Z,14.57
2022-10-12T02:20:14.328Z,14.60
2022-10-12T02:22:42.818Z,20.73
2022-10-12T02:25:12.661Z,21.55
2022-10-12T02:27:43.762Z,20.38
2022-10-12T02:30:12.424Z,19.33
2022-10-12T02:32:45.709Z,18.55
2022-10-12T02:35:15.287Z,20.35
2022-10-12T02:37:45.570Z,17.98
2022-10-12T02:40:17.032Z,15.60
2022-10-12T02:43:09.450Z,17.90
2022-10-12T02:45:35.976Z,15.45
2022-10-12T02:48:05.832Z,14.95
2022-10-12T02:50:33.950Z,19.70
2022-10-12T02:53:01.355Z,17.33
2022-10-12T02:55:30.708Z,20.33
2022-10-12T02:57:58.127Z,13.02
2022-10-12T03:00:25.461Z,19.88
2022-10-12T03:02:52.782Z,16.23
2022-10-12T03:05:21.415Z,19.65
2022-10-12T03:07:48.726Z,16.27
2022-10-12T03:10:16.046Z,16.33
2022-10-12T03:12:47.753Z,12.07
2022-10-12T03:17:44.555Z,15.38
2022-10-12T03:20:12.416Z,17.77
2022-10-12T03:22:41.050Z,23.02
2022-10-12T03:25:08.713Z,17.70
2022-10-12T03:27:36.275Z,18.80
2022-10-12T03:30:03.964Z,14.68
2022-10-12T03:32:31.326Z,16.23
2022-10-12T03:34:58.665Z,22.58
2022-10-12T03:37:26.013Z,20.48
2022-10-12T03:39:54.654Z,17.40
2022-10-12T03:42:22.011Z,19.45
2022-10-12T03:44:49.332Z,16.73
2022-10-12T03:47:16.676Z,21.50
2022-10-12T03:49:44.005Z,23.63
2022-10-12T03:52:11.373Z,29.27
2022-10-12T03:54:38.690Z,37.15
2022-10-12T03:57:07.347Z,31.08
2022-10-12T03:59:34.662Z,28.10
2022-10-12T04:02:01.991Z,21.25
2022-10-12T04:04:29.318Z,17.38
2022-10-12T04:06:56.628Z,20.70
2022-10-12T04:09:24.024Z,17.00
2022-10-12T04:11:51.371Z,22.50
2022-10-12T04:14:20.012Z,22.85
2022-10-12T04:16:47.354Z,22.42
2022-10-12T04:19:15.001Z,21.55
2022-10-12T04:21:42.507Z,19.20
2022-10-12T04:24:09.830Z,19.20
2022-10-12T04:26:37.194Z,21.85
2022-10-12T04:29:04.836Z,21.33
2022-10-12T04:31:33.493Z,20.30
2022-10-12T04:34:00.821Z,21.60
2022-10-12T04:36:28.390Z,22.52
2022-10-12T04:39:00.645Z,23.63
2022-10-12T04:41:28.668Z,21.67
2022-10-12T04:43:56.235Z,21.17
2022-10-12T04:46:23.568Z,21.65
2022-10-12T04:48:52.239Z,19.70
2022-10-12T04:51:19.642Z,20.58
2022-10-12T04:53:47.004Z,26.08
2022-10-12T04:56:14.383Z,20.58
2022-10-12T04:58:41.721Z,19.15
2022-10-12T05:01:09.202Z,20.73
2022-10-12T05:03:41.656Z,24.38
2022-10-12T05:06:10.949Z,22.70
2022-10-12T05:08:38.281Z,17.83
2022-10-12T05:11:05.857Z,26.02
2022-10-12T05:13:33.224Z,20.65
2022-10-12T05:16:00.603Z,27.70
2022-10-12T05:18:27.938Z,21.00
2022-10-12T05:20:57.239Z,16.92
2022-10-12T05:23:25.998Z,22.02
2022-10-12T05:25:55.634Z,18.00
2022-10-12T05:28:23.065Z,17.10
2022-10-12T05:30:50.686Z,17.73
2022-10-12T05:33:18.565Z,18.05
2022-10-12T05:35:48.784Z,25.63
2022-10-12T05:38:17.576Z,20.88
2022-10-12T05:40:46.223Z,19.45
2022-10-12T05:43:13.628Z,23.45
2022-10-12T05:45:40.988Z,15.02
2022-10-12T05:48:08.335Z,25.38
2022-10-12T05:50:35.685Z,19.45
2022-10-12T05:53:03.066Z,17.73
2022-10-12T05:55:30.405Z,20.67
2022-10-12T05:57:59.078Z,20.05
2022-10-12T06:00:26.489Z,24.75
2022-10-12T06:02:53.823Z,28.98
2022-10-12T06:05:21.199Z,26.15
2022-10-12T06:07:48.535Z,28.05
2022-10-12T06:10:15.906Z,39.58
2022-10-12T06:12:43.296Z,32.13
2022-10-12T06:15:12.200Z,33.83
2022-10-12T06:17:39.562Z,34.38
2022-10-12T06:20:08.001Z,51.03
2022-10-12T06:22:35.619Z,38.65
2022-10-12T06:25:03.234Z,35.97
2022-10-12T06:27:31.174Z,38.50
2022-10-12T06:29:58.532Z,30.05
2022-10-12T06:32:27.162Z,29.60
2022-10-12T06:34:54.484Z,30.63
2022-10-12T06:37:47.831Z,29.65
2022-10-12T06:40:10.207Z,26.27
2022-10-12T06:42:37.919Z,34.88
2022-10-12T06:45:07.457Z,30.52
2022-10-12T06:47:36.107Z,26.73
2022-10-12T06:50:03.542Z,26.20
2022-10-12T06:52:31.593Z,21.85
2022-10-12T06:54:58.923Z,25.02
2022-10-12T06:57:26.312Z,24.25
2022-10-12T06:59:53.749Z,23.90
2022-10-12T07:02:21.190Z,17.85
2022-10-12T07:04:51.616Z,16.73
2022-10-12T07:07:19.126Z,15.38
2022-10-12T07:09:46.583Z,20.55
2022-10-12T07:12:13.934Z,20.00
2022-10-12T07:14:41.393Z,19.98
2022-10-12T07:17:08.815Z,19.38
2022-10-12T07:19:36.153Z,17.15
2022-10-12T07:22:04.811Z,32.08
2022-10-12T07:24:36.211Z,20.60
2022-10-12T07:27:04.148Z,24.33
2022-10-12T07:29:32.517Z,17.70
2022-10-12T07:31:59.923Z,29.20
2022-10-12T07:34:27.534Z,14.10
2022-10-12T07:36:59.645Z,23.77
2022-10-12T07:39:28.872Z,15.25
2022-10-12T07:41:56.745Z,14.93
2022-10-12T07:44:24.462Z,21.02
2022-10-12T07:46:52.115Z,18.50
2022-10-12T07:49:19.476Z,14.35
2022-10-12T07:51:47.333Z,21.92
2022-10-12T07:54:19.855Z,14.63
2022-10-12T07:59:17.450Z,11.80
2022-10-12T08:01:44.933Z,15.63
2022-10-12T08:04:12.338Z,13.95
2022-10-12T08:06:42.555Z,14.90
2022-10-12T08:09:10.334Z,15.13
2022-10-12T08:11:39.148Z,18.77
2022-10-12T08:14:10.396Z,10.38
2022-10-12T08:16:37.839Z,11.10
2022-10-12T08:19:05.168Z,12.93
2022-10-12T08:21:32.548Z,12.02
2022-10-12T08:23:59.909Z,13.73
2022-10-12T08:26:27.458Z,13.55
2022-10-12T08:28:54.879Z,13.18
2022-10-12T08:31:23.574Z,12.52
2022-10-12T08:33:51.021Z,15.23
2022-10-12T08:36:18.421Z,12.50
2022-10-12T08:38:48.572Z,14.57
2022-10-12T08:41:32.548Z,19.08
2022-10-12T08:46:35.120Z,11.80
2022-10-12T08:49:05.095Z,14.57
2022-10-12T08:51:34.659Z,12.38
2022-10-12T08:54:04.649Z,14.27
2022-10-12T08:56:32.188Z,13.98
2022-10-12T08:58:59.519Z,10.27
2022-10-12T09:01:30.933Z,11.80
2022-10-12T09:04:09.811Z,13.73
2022-10-12T09:06:40.987Z,15.20
2022-10-12T09:09:19.677Z,13.63
2022-10-12T09:11:57.451Z,12.30
2022-10-12T09:14:28.383Z,13.50
2022-10-12T09:16:56.770Z,10.63
2022-10-12T09:19:29.235Z,17.08
2022-10-12T09:21:57.343Z,8.52
2022-10-12T09:24:28.644Z,11.45
2022-10-12T09:27:00.447Z,11.77
2022-10-12T09:29:29.735Z,9.82
2022-10-12T09:32:11.633Z,9.82
2022-10-12T09:34:40.931Z,8.45
2022-10-12T09:37:13.570Z,14.30
2022-10-12T09:39:41.073Z,13.33
2022-10-12T09:42:10.141Z,9.02
2022-10-12T09:44:40.325Z,16.35
2022-10-12T09:47:24.201Z,11.70
2022-10-12T09:49:53.875Z,8.65
2022-10-12T09:52:23.010Z,11.55
2022-10-12T09:54:52.922Z,12.05
2022-10-12T09:57:21.779Z,11.45
2022-10-12T09:59:50.000Z,11.70
2022-10-12T10:02:18.778Z,8.23
2022-10-12T10:04:47.482Z,9.02
2022-10-12T10:07:24.566Z,8.35
2022-10-12T10:10:15.225Z,16.08
2022-10-12T10:12:49.439Z,13.30
2022-10-12T10:15:23.671Z,13.40
2022-10-12T10:17:53.976Z,11.40
2022-10-12T10:20:26.196Z,15.05
2022-10-12T10:22:55.134Z,8.30
2022-10-12T10:25:24.110Z,12.85
2022-10-12T10:27:52.718Z,13.63
2022-10-12T10:30:30.775Z,17.63
2022-10-12T10:33:09.957Z,16.60
2022-10-12T10:35:37.754Z,9.88
2022-10-12T10:38:07.398Z,12.98
2022-10-12T10:40:34.941Z,6.45
2022-10-12T10:43:04.994Z,12.80
2022-10-12T10:45:35.141Z,9.80
2022-10-12T10:48:08.003Z,10.63
2022-10-12T10:50:38.143Z,8.82
2022-10-12T10:53:08.914Z,10.82
2022-10-12T10:55:44.102Z,14.05
2022-10-12T10:58:20.202Z,11.63
2022-10-12T11:00:49.242Z,13.20
2022-10-12T11:05:57.158Z,7.68
2022-10-12T11:08:28.088Z,10.05
2022-10-12T11:10:58.268Z,10.43
2022-10-12T11:13:29.486Z,10.75
2022-10-12T11:15:58.801Z,8.35
2022-10-12T11:18:28.857Z,12.98
2022-10-12T11:20:59.218Z,6.55
2022-10-12T11:23:38.416Z,11.68
2022-10-12T11:26:24.192Z,13.02
2022-10-12T11:28:52.383Z,12.75
2022-10-12T11:31:24.083Z,9.23
2022-10-12T11:33:53.580Z,10.18
2022-10-12T11:36:22.716Z,9.13
2022-10-12T11:38:53.968Z,7.68
2022-10-12T11:41:38.705Z,11.93
2022-10-12T11:44:10.679Z,14.82
2022-10-12T11:46:40.968Z,10.65
2022-10-12T11:49:14.135Z,9.75
2022-10-12T11:54:18.563Z,14.75
2022-10-12T11:56:48.592Z,11.77
2022-10-12T11:59:18.118Z,8.77
2022-10-12T12:01:56.777Z,10.35
2022-10-12T12:04:47.776Z,8.07
2022-10-12T12:07:41.653Z,7.05
2022-10-12T12:10:46.429Z,10.75
2022-10-12T12:13:27.098Z,8.70
2022-10-12T12:16:27.155Z,10.65
2022-10-12T12:19:14.937Z,10.43
2022-10-12T12:22:26.233Z,11.32
2022-10-12T12:24:56.898Z,9.18
2022-10-12T12:27:30.419Z,15.18
2022-10-12T12:32:27.793Z,8.45
2022-10-12T12:35:00.540Z,7.35
2022-10-12T12:37:33.093Z,9.40
2022-10-12T12:40:00.944Z,9.75
2022-10-12T12:42:32.038Z,10.75
2022-10-12T12:45:40.859Z,14.35
2022-10-12T12:48:10.294Z,8.95
2022-10-12T12:50:38.731Z,13.15
2022-10-12T12:53:08.104Z,13.82
2022-10-12T12:55:50.383Z,11.15
2022-10-12T12:58:29.589Z,6.72
2022-10-12T13:01:21.288Z,10.18
2022-10-12T13:04:01.215Z,10.73
2022-10-12T13:06:53.398Z,11.52
2022-10-12T13:09:35.159Z,10.00
2022-10-12T13:12:18.035Z,8.80
2022-10-12T13:15:14.437Z,21.98
2022-10-12T13:17:53.801Z,12.77
2022-10-12T13:20:24.126Z,12.55
2022-10-12T13:22:54.445Z,12.43
2022-10-12T13:25:28.809Z,12.25
2022-10-12T13:27:56.578Z,7.85
2022-10-12T13:30:31.450Z,12.65
2022-10-12T13:33:04.234Z,13.23
2022-10-12T13:35:34.826Z,14.65
2022-10-12T13:38:04.240Z,12.98
2022-10-12T13:40:33.457Z,20.35
2022-10-12T13:43:19.476Z,8.20
2022-10-12T13:45:47.259Z,15.85
2022-10-12T13:48:29.510Z,14.07
2022-10-12T13:51:22.537Z,9.55
2022-10-12T13:53:49.963Z,10.57
2022-10-12T13:56:19.497Z,11.05
2022-10-12T13:58:47.137Z,8.45
2022-10-12T14:01:15.059Z,13.23
2022-10-12T14:03:45.021Z,13.23
2022-10-12T14:06:25.903Z,13.43
2022-10-12T14:08:53.431Z,14.20
2022-10-12T14:11:21.039Z,10.40
2022-10-12T14:13:48.626Z,16.45
2022-10-12T14:16:16.011Z,9.90
2022-10-12T14:18:45.532Z,21.02
2022-10-12T14:21:22.280Z,14.00
2022-10-12T14:23:52.153Z,13.00
2022-10-12T14:26:25.659Z,13.48
2022-10-12T14:28:53.543Z,18.25
2022-10-12T14:31:49.720Z,11.55
2022-10-12T14:34:34.829Z,18.02
2022-10-12T14:39:29.791Z,7.15
2022-10-12T14:41:57.633Z,10.90
2022-10-12T14:44:26.694Z,15.32
2022-10-12T14:46:55.708Z,11.43
2022-10-12T14:49:26.793Z,12.52
2022-10-12T14:51:55.226Z,14.30
2022-10-12T14:54:23.718Z,13.82
2022-10-12T14:56:51.075Z,15.32
2022-10-12T14:59:18.398Z,14.23
2022-10-12T15:01:49.011Z,18.20
2022-10-12T15:04:18.603Z,9.00
2022-10-12T15:06:50.949Z,11.05
2022-10-12T15:09:18.671Z,13.88
2022-10-12T15:11:46.006Z,10.85
2022-10-12T15:14:14.353Z,9.77
2022-10-12T15:16:41.751Z,12.65
2022-10-12T15:19:09.073Z,17.42
2022-10-12T15:21:36.445Z,16.08
2022-10-12T15:24:12.948Z,11.65
2022-10-12T15:26:42.428Z,12.75
2022-10-12T15:29:09.968Z,14.00
2022-10-12T15:31:37.308Z,13.60
2022-10-12T15:34:04.644Z,10.70
2022-10-12T15:36:31.999Z,11.63
2022-10-12T15:38:59.413Z,16.25
2022-10-12T15:41:28.079Z,11.73
2022-10-12T15:43:55.429Z,14.35
2022-10-12T15:46:22.819Z,10.02
2022-10-12T15:48:50.286Z,11.18
2022-10-12T15:51:22.708Z,12.27
2022-10-12T15:53:50.218Z,9.73
2022-10-12T15:56:18.457Z,16.48
2022-10-12T15:58:47.275Z,9.55
2022-10-12T16:01:15.556Z,12.63
2022-10-12T16:03:43.442Z,12.80
2022-10-12T16:06:10.933Z,11.25
2022-10-12T16:08:38.758Z,13.45
2022-10-12T16:11:07.530Z,9.15
2022-10-12T16:13:38.299Z,16.60
2022-10-12T16:16:10.008Z,18.70
2022-10-12T16:18:37.440Z,16.02
2022-10-12T16:21:05.122Z,16.77
2022-10-12T16:23:35.317Z,20.05
2022-10-12T16:26:03.864Z,21.05
2022-10-12T16:28:31.546Z,18.02
2022-10-12T16:30:58.977Z,17.85
2022-10-12T16:33:28.577Z,19.50
2022-10-12T16:35:55.926Z,15.20
2022-10-12T16:38:23.281Z,18.70
2022-10-12T16:40:50.686Z,35.00
2022-10-12T16:43:19.292Z,22.58
2022-10-12T16:45:46.800Z,30.83
2022-10-12T16:48:14.220Z,25.33
2022-10-12T16:50:43.556Z,28.95
2022-10-12T16:53:10.892Z,20.38
2022-10-12T16:55:39.616Z,24.98
2022-10-12T16:58:07.001Z,22.38
2022-10-12T17:00:34.645Z,24.00
2022-10-12T17:03:02.302Z,23.35
2022-10-12T17:05:29.793Z,36.20
2022-10-12T17:07:59.556Z,22.13
2022-10-12T17:10:26.968Z,17.27
2022-10-12T17:12:54.311Z,13.23
2022-10-12T17:15:21.657Z,30.73
2022-10-12T17:17:49.006Z,19.95
2022-10-12T17:20:16.382Z,21.77
2022-10-12T17:22:44.261Z,15.43
2022-10-12T17:25:12.921Z,24.70
2022-10-12T17:27:40.243Z,25.23
2022-10-12T17:30:08.867Z,19.27
2022-10-12T17:32:37.812Z,18.27
2022-10-12T17:35:05.833Z,24.15
2022-10-12T17:37:34.101Z,30.88
2022-10-12T17:40:02.774Z,23.92
2022-10-12T17:42:31.414Z,21.85
2022-10-12T17:44:58.824Z,26.13
2022-10-12T17:47:26.237Z,25.33
2022-10-12T17:49:53.648Z,27.65
2022-10-12T17:52:20.988Z,21.52
2022-10-12T17:54:48.298Z,21.15
2022-10-12T17:57:15.955Z,17.25
2022-10-12T17:59:44.931Z,24.25
2022-10-12T18:02:12.298Z,22.60
2022-10-12T18:04:39.645Z,15.35
2022-10-12T18:07:06.975Z,17.75
2022-10-12T18:09:34.301Z,22.33
2022-10-12T18:12:01.698Z,18.95
2022-10-12T18:14:29.094Z,24.02
2022-10-12T18:16:58.705Z,20.65
2022-10-12T18:19:26.047Z,22.27
2022-10-12T18:21:53.508Z,17.13
2022-10-12T18:24:23.114Z,21.00
2022-10-12T18:26:50.560Z,15.88
2022-10-12T18:29:20.436Z,16.77
2022-10-12T18:31:47.899Z,14.50
2022-10-12T18:34:16.752Z,13.70
2022-10-12T18:36:44.125Z,16.38
2022-10-12T18:39:11.556Z,18.10
2022-10-12T18:41:39.007Z,16.02
2022-10-12T18:44:06.354Z,16.98
2022-10-12T18:46:37.012Z,17.58
2022-10-12T18:49:06.826Z,17.85
2022-10-12T18:51:37.429Z,16.33
2022-10-12T18:54:05.452Z,21.40
2022-10-12T18:56:34.087Z,24.73
2022-10-12T18:59:02.109Z,20.48
2022-10-12T19:01:30.444Z,20.25
2022-10-12T19:03:59.157Z,16.98
2022-10-12T19:06:28.082Z,18.77
2022-10-12T19:08:57.397Z,23.63
2022-10-12T19:11:26.258Z,27.23
2022-10-12T19:13:53.995Z,25.55
2022-10-12T19:16:21.393Z,20.45
2022-10-12T19:18:50.023Z,21.15
2022-10-12T19:21:19.536Z,22.45
2022-10-12T19:23:47.186Z,22.25
2022-10-12T19:26:18.068Z,22.27
2022-10-12T19:28:46.212Z,20.77
2022-10-12T19:31:15.247Z,20.85
2022-10-12T19:33:43.175Z,17.45
2022-10-12T19:36:11.850Z,22.08
2022-10-12T19:38:39.531Z,16.98
2022-10-12T19:41:09.377Z,19.90
2022-10-12T19:43:38.240Z,28.13
2022-10-12T19:46:06.995Z,18.45
2022-10-12T19:48:34.569Z,20.15
2022-10-12T19:51:04.000Z,21.58
2022-10-12T19:53:31.415Z,30.80
2022-10-12T19:56:02.771Z,20.75
2022-10-12T19:58:30.133Z,21.60
2022-10-12T20:01:02.862Z,19.88
2022-10-12T20:03:30.405Z,19.85
2022-10-12T20:05:57.860Z,23.42
2022-10-12T20:08:25.693Z,23.08
2022-10-12T20:10:53.451Z,22.75
2022-10-12T20:13:21.250Z,33.92
2022-10-12T20:15:52.582Z,21.23
2022-10-12T20:18:21.461Z,21.92
2022-10-12T20:20:49.082Z,22.00
2022-10-12T20:23:17.199Z,17.92
2022-10-12T20:25:48.621Z,17.67
2022-10-12T20:28:16.468Z,21.10
2022-10-12T20:30:44.255Z,27.05
2022-10-12T20:33:11.771Z,23.63
2022-10-12T20:35:46.396Z,24.33
2022-10-12T20:38:13.864Z,24.25
2022-10-12T20:40:41.346Z,25.23
2022-10-12T20:43:08.720Z,23.52
2022-10-12T20:45:36.531Z,22.73
2022-10-12T20:48:04.365Z,23.45
2022-10-12T20:50:32.434Z,24.10
2022-10-12T20:53:01.223Z,21.02
2022-10-12T20:55:28.582Z,21.42
2022-10-12T20:57:56.074Z,18.80
2022-10-12T21:00:23.600Z,21.92
2022-10-12T21:02:51.005Z,22.95
2022-10-12T21:05:19.367Z,24.75
2022-10-12T21:07:46.929Z,30.95
2022-10-12T21:10:15.766Z,20.55
2022-10-12T21:12:43.149Z,21.98
2022-10-12T21:15:11.630Z,24.00
2022-10-12T21:17:38.984Z,20.00
2022-10-12T21:20:07.292Z,23.13
2022-10-12T21:22:34.650Z,16.48
2022-10-12T21:25:02.186Z,18.77
2022-10-12T21:27:30.871Z,17.65
2022-10-12T21:29:58.303Z,25.15
2022-10-12T21:32:32.380Z,18.88
2022-10-12T21:35:00.162Z,22.20
2022-10-12T21:37:28.972Z,18.05
2022-10-12T21:39:56.328Z,17.00
2022-10-12T21:42:23.859Z,17.27
2022-10-12T21:44:52.529Z,22.55
2022-10-12T21:47:19.923Z,19.95
2022-10-12T21:49:47.267Z,26.30
2022-10-12T21:52:14.611Z,23.13
2022-10-12T21:54:42.001Z,19.77
2022-10-12T21:57:09.458Z,21.30
2022-10-12T21:59:36.843Z,16.42
2022-10-12T22:02:05.498Z,21.92
2022-10-12T22:04:32.872Z,19.35
2022-10-12T22:07:00.838Z,20.67
2022-10-12T22:09:28.231Z,19.75
2022-10-12T22:11:55.563Z,14.38
2022-10-12T22:14:23.163Z,23.05
2022-10-12T22:16:50.498Z,21.23
2022-10-12T22:19:19.651Z,17.02
2022-10-12T22:21:47.563Z,15.35
2022-10-12T22:24:15.253Z,18.38
2022-10-12T22:26:42.639Z,16.92
2022-10-12T22:29:10.540Z,19.33
2022-10-12T22:31:38.689Z,15.60
2022-10-12T22:34:08.007Z,23.25
2022-10-12T22:36:37.969Z,21.50
2022-10-12T22:39:07.063Z,18.67
2022-10-12T22:41:34.406Z,14.10
2022-10-12T22:44:01.720Z,21.75
2022-10-12T22:46:29.073Z,19.48
2022-10-12T22:48:56.479Z,22.77
2022-10-12T22:51:28.892Z,21.13
2022-10-12T22:53:57.743Z,19.85
2022-10-12T22:56:25.251Z,23.58
2022-10-12T22:58:54.838Z,25.95
2022-10-12T23:01:22.481Z,27.55
2022-10-12T23:03:49.858Z,24.73
2022-10-12T23:06:18.231Z,20.60
2022-10-12T23:08:45.774Z,23.17
2022-10-12T23:11:16.019Z,19.65
2022-10-12T23:13:43.900Z,16.63
2022-10-12T23:16:12.624Z,21.55
2022-10-12T23:18:40.349Z,24.05
2022-10-12T23:21:08.991Z,23.98
2022-10-12T23:23:37.170Z,17.60
2022-10-12T23:26:06.496Z,24.38
2022-10-12T23:28:35.497Z,28.60
2022-10-12T23:31:03.963Z,20.58
2022-10-12T23:33:31.308Z,19.20
2022-10-12T23:35:59.208Z,22.83
2022-10-12T23:38:27.416Z,25.70
2022-10-12T23:40:54.735Z,22.38
2022-10-12T23:43:22.102Z,19.15
2022-10-12T23:45:50.981Z,18.40
2022-10-12T23:48:18.339Z,23.90
2022-10-12T23:50:47.235Z,22.77
2022-10-12T23:53:14.812Z,21.02
2022-10-12T23:55:42.354Z,18.92
2022-10-12T23:58:09.848Z,22.45
